Time;durP1;ratioP1;P1;durP2;ratioP2;P2;SDS_P1;SDS_P2;PMS_P1;PMS_P2;Temp;Humidity;BMP_temperature;BMP_pressure;BME280_temperature;BME280_humidity;BME280_pressure;Samples;Min_cycle;Max_cycle;Signal;HPM_P1;HPM_P2
2023/01/18 00:00:39;;;;;;;10.63;6.05;;;;;;;-1.36;100.00;94346.63;4954231;28;20039;-63
2023/01/18 00:03:12;;;;;;;9.82;5.90;;;;;;;-1.32;100.00;94350.41;4962725;28;20031;-63
2023/01/18 00:05:40;;;;;;;10.95;6.68;;;;;;;-1.38;100.00;94346.06;4951575;28;20044;-63
2023/01/18 00:08:08;;;;;;;10.95;5.90;;;;;;;-1.32;100.00;94342.44;4956168;28;20050;-63
2023/01/18 00:10:35;;;;;;;11.00;6.90;;;;;;;-1.26;100.00;94340.63;4951368;28;20578;-63
2023/01/18 00:13:02;;;;;;;11.45;6.03;;;;;;;-1.36;100.00;94336.81;4955423;28;20055;-63
2023/01/18 00:15:33;;;;;;;9.63;5.35;;;;;;;-1.31;100.00;94339.53;4955344;28;20062;-63
2023/01/18 00:18:00;;;;;;;8.80;4.43;;;;;;;-1.32;100.00;94345.09;4958548;28;20130;-63
2023/01/18 00:20:28;;;;;;;9.57;5.63;;;;;;;-1.30;100.00;94348.28;4958477;28;20688;-63
2023/01/18 00:22:58;;;;;;;10.18;6.05;;;;;;;-1.36;100.00;94349.28;4959997;28;20038;-63
2023/01/18 00:25:25;;;;;;;10.88;6.05;;;;;;;-1.27;100.00;94349.63;4960312;28;20043;-63
2023/01/18 00:27:55;;;;;;;12.45;6.22;;;;;;;-1.22;100.00;94355.78;4953771;28;20126;-63
2023/01/18 00:30:24;;;;;;;9.13;5.40;;;;;;;-1.25;100.00;94350.97;4948567;28;20542;-63
2023/01/18 00:32:56;;;;;;;10.00;5.75;;;;;;;-1.22;100.00;94353.13;4948486;28;20089;-63
2023/01/18 00:35:24;;;;;;;8.30;4.80;;;;;;;-1.25;100.00;94356.28;4953881;28;20058;-63
2023/01/18 00:37:52;;;;;;;10.02;5.53;;;;;;;-1.32;100.00;94353.06;4959694;28;20047;-63
2023/01/18 00:40:20;;;;;;;9.02;5.15;;;;;;;-1.27;100.00;94355.75;4957732;28;20058;-63
2023/01/18 00:45:32;;;;;;;10.93;6.20;;;;;;;-1.22;100.00;94347.81;4951810;28;20070;-63
2023/01/18 00:47:58;;;;;;;8.85;5.47;;;;;;;-1.19;100.00;94349.97;4953641;28;20406;-63
2023/01/18 00:50:25;;;;;;;9.02;5.45;;;;;;;-1.21;100.00;94345.97;4960917;28;20047;-63
2023/01/18 00:52:55;;;;;;;11.00;5.32;;;;;;;-1.13;100.00;94344.72;4952430;28;20078;-63
2023/01/18 00:55:22;;;;;;;7.73;5.40;;;;;;;-1.14;100.00;94348.44;4953167;28;20051;-63
2023/01/18 00:57:49;;;;;;;9.20;5.80;;;;;;;-1.13;100.00;94344.72;4958575;28;20077;-63
2023/01/18 01:00:17;;;;;;;9.90;5.78;;;;;;;-1.14;100.00;94348.44;4955157;28;20054;-63
2023/01/18 01:02:44;;;;;;;8.90;5.53;;;;;;;-1.18;100.00;94351.56;4963498;28;20122;-63
2023/01/18 01:08:02;;;;;;;12.95;6.05;;;;;;;-1.26;100.00;94360.00;4954562;28;20047;-63
2023/01/18 01:10:29;;;;;;;8.57;5.68;;;;;;;-1.28;100.00;94353.34;4962809;28;20123;-63
2023/01/18 01:26:40;;;;;;;8.90;5.50;;;;;;;-1.37;100.00;94371.59;4958691;28;20095;-63
2023/01/18 01:29:06;;;;;;;8.27;5.68;;;;;;;-1.37;100.00;94366.28;4959160;28;20047;-63
2023/01/18 01:31:33;;;;;;;12.32;6.13;;;;;;;-1.40;100.00;94372.09;4958200;28;20079;-63
2023/01/18 01:33:59;;;;;;;8.52;5.40;;;;;;;-1.40;100.00;94374.75;4959271;28;20395;-63
2023/01/18 01:36:27;;;;;;;8.23;4.68;;;;;;;-1.50;100.00;94370.13;4957170;28;20081;-63
2023/01/18 01:38:54;;;;;;;8.25;4.97;;;;;;;-1.45;100.00;94368.31;4961648;28;20045;-63
2023/01/18 01:41:30;;;;;;;7.95;5.10;;;;;;;-1.40;100.00;94375.53;4961009;28;20047;-63
2023/01/18 01:44:18;;;;;;;11.18;6.40;;;;;;;-1.34;100.00;94384.34;4957435;28;20047;-63
2023/01/18 01:46:49;;;;;;;11.40;6.47;;;;;;;-1.35;100.00;94382.75;4954414;28;20497;-63
2023/01/18 01:49:22;;;;;;;11.63;6.15;;;;;;;-1.28;100.00;94390.50;4961443;28;20514;-63
2023/01/18 01:51:59;;;;;;;8.90;5.38;;;;;;;-1.21;100.00;94380.50;4957699;28;20070;-63
2023/01/18 01:54:30;;;;;;;8.07;4.97;;;;;;;-1.27;100.00;94386.78;4966555;28;20039;-63
2023/01/18 01:57:05;;;;;;;9.55;5.50;;;;;;;-1.33;100.00;94394.72;4960475;28;20473;-63
2023/01/18 01:59:36;;;;;;;8.20;5.13;;;;;;;-1.27;100.00;94398.22;4960893;28;20072;-63
2023/01/18 02:02:03;;;;;;;10.75;6.28;;;;;;;-1.10;100.00;94405.28;4960770;28;20043;-63
2023/01/18 02:04:32;;;;;;;8.80;5.47;;;;;;;-1.21;100.00;94404.38;4961788;28;20042;-63
2023/01/18 02:06:58;;;;;;;8.23;4.90;;;;;;;-1.23;100.00;94394.00;4954910;28;20066;-63
2023/01/18 02:09:25;;;;;;;8.45;4.82;;;;;;;-1.22;100.00;94394.81;4964713;28;20043;-63
2023/01/18 02:11:53;;;;;;;7.38;4.75;;;;;;;-1.23;100.00;94401.97;4962775;28;20086;-63
2023/01/18 02:14:25;;;;;;;9.40;5.53;;;;;;;-1.25;100.00;94403.28;4962467;28;20431;-63
2023/01/18 02:17:12;;;;;;;8.65;4.93;;;;;;;-1.29;100.00;94410.16;4958850;28;20078;-63
2023/01/18 02:19:57;;;;;;;10.88;5.95;;;;;;;-1.28;100.00;94407.25;4953567;28;20074;-63
2023/01/18 02:22:43;;;;;;;13.65;6.78;;;;;;;-1.26;100.00;94413.09;4956655;28;20046;-63
2023/01/18 02:25:25;;;;;;;12.85;6.50;;;;;;;-1.23;100.00;94415.25;4963207;28;20122;-63
2023/01/18 02:28:13;;;;;;;12.07;6.22;;;;;;;-1.15;100.00;94419.31;4964036;28;20058;-63
2023/01/18 02:31:08;;;;;;;11.85;6.85;;;;;;;-1.15;100.00;94421.97;4955901;28;20607;-62
2023/01/18 02:33:41;;;;;;;10.95;6.57;;;;;;;-1.21;100.00;94418.44;4950018;28;20070;-63
2023/01/18 02:36:19;;;;;;;11.80;6.68;;;;;;;-1.31;100.00;94431.63;4961423;28;20878;-63
2023/01/18 02:38:51;;;;;;;8.90;5.75;;;;;;;-1.33;100.00;94431.88;4959996;28;20035;-63
2023/01/18 02:47:32;;;;;;;10.93;6.30;;;;;;;-1.24;100.00;94434.91;4925437;29;20071;-63
2023/01/18 02:49:59;;;;;;;12.80;6.68;;;;;;;-1.28;100.00;94441.75;4946744;28;20063;-63
2023/01/18 02:52:46;;;;;;;11.70;6.35;;;;;;;-1.27;100.00;94443.34;4954973;28;20047;-63
2023/01/18 02:55:23;;;;;;;12.75;6.47;;;;;;;-1.26;100.00;94431.69;4958265;28;20053;-63
2023/01/18 02:57:55;;;;;;;11.13;6.28;;;;;;;-1.22;100.00;94437.31;4959641;28;20134;-63
2023/01/18 03:00:23;;;;;;;14.02;6.95;;;;;;;-1.24;100.00;94440.22;4965214;28;20059;-63
2023/01/18 03:02:51;;;;;;;12.40;6.75;;;;;;;-1.28;100.00;94441.75;4961430;28;20039;-63
2023/01/18 03:05:19;;;;;;;9.75;6.18;;;;;;;-1.51;100.00;94446.28;4960828;28;20066;-63
2023/01/18 03:08:08;;;;;;;11.15;6.78;;;;;;;-1.52;100.00;94444.66;4961655;28;20128;-63
2023/01/18 03:10:46;;;;;;;10.23;6.13;;;;;;;-1.40;100.00;94449.84;4955819;28;20604;-63
2023/01/18 03:13:27;;;;;;;11.55;6.80;;;;;;;-1.47;100.00;94446.59;4962974;28;20043;-63
2023/01/18 03:16:07;;;;;;;10.30;6.10;;;;;;;-1.53;100.00;94444.91;4958982;28;20051;-63
2023/01/18 03:18:58;;;;;;;13.30;6.60;;;;;;;-1.49;100.00;94453.97;4965410;28;20659;-63
2023/01/18 03:21:50;;;;;;;11.10;5.85;;;;;;;-1.53;100.00;94461.66;4959840;28;20110;-63
2023/01/18 03:24:18;;;;;;;11.98;6.53;;;;;;;-1.41;100.00;94466.03;4954063;28;20057;-63
2023/01/18 03:26:51;;;;;;;10.20;5.88;;;;;;;-1.37;100.00;94464.50;4963453;28;20051;-63
2023/01/18 03:35:10;;;;;;;10.90;6.38;;;;;;;-1.51;100.00;94456.88;4964750;28;20129;-63
2023/01/18 03:37:43;;;;;;;11.98;6.68;;;;;;;-1.42;100.00;94457.25;4956799;28;20050;-63
2023/01/18 03:40:19;;;;;;;13.48;6.65;;;;;;;-1.55;100.00;94468.25;4960674;28;20049;-63
2023/01/18 03:42:55;;;;;;;13.02;7.20;;;;;;;-1.45;100.00;94461.22;4965561;28;20039;-63
2023/01/18 03:45:28;;;;;;;14.68;7.75;;;;;;;-1.31;100.00;94466.13;4965438;28;20055;-63
2023/01/18 03:47:55;;;;;;;14.10;7.43;;;;;;;-1.31;100.00;94466.94;4958686;28;20454;-63
2023/01/18 03:50:26;;;;;;;13.10;7.45;;;;;;;-1.22;100.00;94469.94;4962638;28;20501;-63
2023/01/18 03:52:57;;;;;;;;;;;;;;;-1.26;100.00;94473.38;4964200;28;20073;-63
2023/01/18 03:55:39;;;;;;;11.55;6.22;;;;;;;-1.44;100.00;94478.75;4960195;28;20378;-63
2023/01/18 03:58:09;;;;;;;14.77;7.18;;;;;;;-1.38;100.00;94476.94;4952717;28;20054;-63
2023/01/18 04:00:38;;;;;;;12.18;6.93;;;;;;;-1.36;100.00;94482.00;4958157;28;20066;-63
2023/01/18 04:03:05;;;;;;;11.70;6.90;;;;;;;-1.42;100.00;94481.16;4947285;28;20051;-63
2023/01/18 04:05:32;;;;;;;11.68;7.20;;;;;;;-1.38;100.00;94486.75;4961056;28;20102;-63
2023/01/18 04:07:59;;;;;;;10.82;6.65;;;;;;;-1.38;100.00;94489.41;4958695;28;20078;-63
2023/01/18 04:10:25;;;;;;;12.60;6.80;;;;;;;-1.49;100.00;94501.75;4950435;28;20075;-63
2023/01/18 04:12:52;;;;;;;11.02;6.95;;;;;;;-1.41;100.00;94505.84;4960443;28;20419;-63
2023/01/18 04:15:19;;;;;;;12.32;6.43;;;;;;;-1.49;100.00;94499.09;4958422;28;20110;-63
2023/01/18 04:17:48;;;;;;;11.63;6.22;;;;;;;-1.44;100.00;94504.47;4959892;28;20317;-63
2023/01/18 04:20:15;;;;;;;11.40;6.93;;;;;;;-1.25;100.00;94512.13;4962343;28;20074;-63
2023/01/18 04:22:41;;;;;;;11.90;6.43;;;;;;;-1.38;100.00;94511.47;4956221;28;20043;-63
2023/01/18 04:25:08;;;;;;;9.68;5.57;;;;;;;-1.38;100.00;94521.25;4958075;28;20056;-63
2023/01/18 04:27:34;;;;;;;9.32;6.20;;;;;;;-1.43;100.00;94522.03;4958982;28;20421;-63
2023/01/18 04:30:01;;;;;;;12.18;6.25;;;;;;;-1.45;100.00;94521.44;4960574;28;20210;-62
2023/01/18 04:32:27;;;;;;;10.25;6.13;;;;;;;-1.48;100.00;94525.41;4956052;28;20050;-63
2023/01/18 04:34:54;;;;;;;11.60;6.35;;;;;;;-1.51;100.00;94520.56;4962641;28;20110;-63
2023/01/18 04:37:29;;;;;;;11.05;6.55;;;;;;;-1.41;100.00;94527.09;4961604;28;20126;-63
2023/01/18 04:39:56;;;;;;;10.73;4.70;;;;;;;-1.41;100.00;94527.09;4963095;28;20046;-63
2023/01/18 04:42:24;;;;;;;7.95;4.97;;;;;;;-1.35;100.00;94526.09;4958718;28;20075;-63
2023/01/18 04:44:51;;;;;;;7.53;4.30;;;;;;;-1.40;100.00;94531.34;4958948;28;20093;-63
2023/01/18 04:47:18;;;;;;;9.13;4.90;;;;;;;-1.46;100.00;94533.13;4957869;28;20697;-63
2023/01/18 04:49:44;;;;;;;7.28;4.60;;;;;;;-1.38;100.00;94535.34;4963316;28;20705;-63
2023/01/18 04:52:11;;;;;;;7.05;4.53;;;;;;;-1.49;100.00;94539.72;4960266;28;20658;-63
2023/01/18 04:54:37;;;;;;;8.15;4.03;;;;;;;-1.32;100.00;94550.28;4963075;28;20592;-63
2023/01/18 04:57:04;;;;;;;8.52;4.95;;;;;;;-1.40;100.00;94545.38;4960572;28;20450;-63
2023/01/18 04:59:30;;;;;;;7.38;4.32;;;;;;;-1.41;100.00;94557.06;4946737;28;20558;-63
2023/01/18 05:01:57;;;;;;;7.97;4.53;;;;;;;-1.37;100.00;94563.50;4955896;28;20074;-63
2023/01/18 05:04:23;;;;;;;7.50;4.65;;;;;;;-1.40;100.00;94558.66;4951876;28;20075;-63
2023/01/18 05:06:50;;;;;;;7.60;4.43;;;;;;;-1.46;100.00;94571.09;4958509;28;20050;-63
2023/01/18 05:09:17;;;;;;;7.03;3.72;;;;;;;-1.57;100.00;94577.28;4960913;28;20050;-63
2023/01/18 05:11:43;;;;;;;7.22;4.05;;;;;;;-1.67;100.00;94580.59;4959485;28;20070;-63
2023/01/18 05:14:09;;;;;;;7.68;4.00;;;;;;;-1.53;100.00;94585.56;4962991;28;20055;-63
2023/01/18 05:16:36;;;;;;;6.30;3.67;;;;;;;-1.55;100.00;94591.09;4964640;28;20039;-63
2023/01/18 05:19:03;;;;;;;7.72;3.72;;;;;;;-1.55;100.00;94596.41;4964592;28;20395;-63
2023/01/18 05:21:29;;;;;;;6.88;4.32;;;;;;;-1.47;100.00;94601.31;4956846;28;20566;-63
2023/01/18 05:23:56;;;;;;;7.03;4.05;;;;;;;-1.48;100.00;94607.69;4963317;28;20598;-63
2023/01/18 05:26:23;;;;;;;9.23;5.40;;;;;;;-1.43;100.00;94609.59;4956338;28;20114;-63
2023/01/18 05:28:54;;;;;;;7.32;4.47;;;;;;;-1.50;100.00;94620.41;4956444;28;20078;-63
2023/01/18 05:31:21;;;;;;;10.38;6.13;;;;;;;-1.47;100.00;94627.84;4958954;28;20035;-63
2023/01/18 05:33:48;;;;;;;8.38;5.18;;;;;;;-1.53;100.00;94628.84;4962655;28;20175;-63
2023/01/18 05:36:14;;;;;;;8.98;5.35;;;;;;;-1.59;100.00;94635.09;4957092;28;20050;-63
2023/01/18 05:38:41;;;;;;;7.35;4.90;;;;;;;-1.53;100.00;94641.28;4960851;28;20494;-63
2023/01/18 05:41:07;;;;;;;9.50;4.20;;;;;;;-1.60;100.00;94644.13;4959480;28;20062;-63
2023/01/18 05:43:34;;;;;;;7.95;4.80;;;;;;;-1.57;100.00;94648.94;4957284;28;20625;-63
2023/01/18 05:46:01;;;;;;;8.77;4.53;;;;;;;-1.59;100.00;94653.69;4964482;28;20126;-63
2023/01/18 05:48:27;;;;;;;8.48;4.82;;;;;;;-1.54;100.00;94656.44;4964549;28;20046;-63
2023/01/18 05:50:54;;;;;;;8.88;5.00;;;;;;;-1.58;100.00;94664.06;4962759;28;20126;-63
2023/01/18 05:53:21;;;;;;;9.55;5.28;;;;;;;-1.59;100.00;94662.44;4963848;28;20465;-63
2023/01/18 05:55:56;;;;;;;10.23;5.72;;;;;;;-1.69;100.00;94670.25;4961805;28;20046;-63
2023/01/18 05:58:23;;;;;;;8.93;5.47;;;;;;;-1.57;100.00;94672.81;4960723;28;20105;-63
2023/01/18 06:00:50;;;;;;;9.68;5.60;;;;;;;-1.64;100.00;94680.94;4961361;28;20046;-63
2023/01/18 06:03:17;;;;;;;9.95;6.13;;;;;;;-1.67;100.00;94686.72;4956715;28;20047;-63
2023/01/18 06:05:45;;;;;;;8.35;5.07;;;;;;;-1.61;100.00;94692.94;4960176;28;20117;-63
2023/01/18 06:08:11;;;;;;;10.10;5.43;;;;;;;-1.46;100.00;94698.50;4967685;28;20677;-63
2023/01/18 06:10:38;;;;;;;16.08;10.48;;;;;;;-1.69;100.00;94710.06;4964897;28;20067;-63
2023/01/18 06:13:05;;;;;;;11.23;5.90;;;;;;;-1.81;100.00;94719.94;4948577;28;20051;-63
2023/01/18 06:15:32;;;;;;;9.32;5.32;;;;;;;-1.66;100.00;94727.34;4957814;28;20030;-63
2023/01/18 06:17:59;;;;;;;9.55;6.25;;;;;;;-1.70;100.00;94734.97;4952212;28;20502;-63
2023/01/18 06:20:29;;;;;;;10.73;5.93;;;;;;;-1.63;100.00;94740.13;4955197;28;20039;-62
2023/01/18 06:22:56;;;;;;;15.80;8.15;;;;;;;-1.72;100.00;94740.53;4959282;28;20039;-63
2023/01/18 06:25:24;;;;;;;13.70;6.07;;;;;;;-1.71;100.00;94744.78;4961055;28;20046;-61
2023/01/18 06:27:50;;;;;;;9.38;6.43;;;;;;;-1.76;100.00;94746.53;4960427;28;20046;-62
2023/01/18 06:30:17;;;;;;;11.80;7.05;;;;;;;-1.88;100.00;94765.19;4964933;28;20513;-62
2023/01/18 06:32:44;;;;;;;11.32;6.85;;;;;;;-1.79;100.00;94770.88;4957881;28;20569;-62
2023/01/18 06:35:10;;;;;;;13.77;8.07;;;;;;;-1.85;100.00;94769.97;4960629;28;20078;-62
2023/01/18 06:37:37;;;;;;;10.43;6.78;;;;;;;-1.80;100.00;94777.25;4962517;28;20109;-61
2023/01/18 06:40:04;;;;;;;13.77;7.43;;;;;;;-1.80;100.00;94775.41;4959356;28;20058;-62
2023/01/18 06:42:30;;;;;;;14.45;8.60;;;;;;;-1.82;100.00;94777.47;4961635;28;20785;-62
2023/01/18 06:44:58;;;;;;;9.93;5.53;;;;;;;-1.79;100.00;94774.34;4962616;28;20187;-63
2023/01/18 06:47:25;;;;;;;12.02;6.32;;;;;;;-2.07;100.00;94780.47;4951980;28;20057;-62
2023/01/18 06:49:51;;;;;;;11.27;6.50;;;;;;;-2.05;100.00;94795.09;4962138;28;20051;-63
2023/01/18 06:52:17;;;;;;;13.38;8.30;;;;;;;-2.11;100.00;94796.84;4956821;28;20042;-63
2023/01/18 06:54:44;;;;;;;13.18;6.05;;;;;;;-2.05;100.00;94795.09;4947230;28;20047;-62
2023/01/18 06:57:11;;;;;;;16.73;7.72;;;;;;;-2.02;100.00;94799.13;4954295;28;20592;-63
2023/01/18 06:59:39;;;;;;;11.15;6.07;;;;;;;-1.97;100.00;94805.34;4954058;28;20619;-63
2023/01/18 07:02:06;;;;;;;9.02;5.82;;;;;;;-1.90;100.00;94810.50;4956516;28;20075;-63
2023/01/18 07:04:36;;;;;;;9.55;5.93;;;;;;;-1.97;100.00;94817.78;4958217;28;20085;-63
2023/01/18 07:07:03;;;;;;;19.90;10.23;;;;;;;-2.02;100.00;94817.69;4961059;28;20058;-62
2023/01/18 07:09:29;;;;;;;10.60;6.90;;;;;;;-1.99;100.00;94823.31;4958171;28;20126;-62
2023/01/18 07:11:56;;;;;;;15.65;9.15;;;;;;;-1.89;100.00;94824.53;4959503;28;20054;-63
2023/01/18 07:14:22;;;;;;;18.67;10.90;;;;;;;-1.98;100.00;94824.91;4955980;28;20051;-63
2023/01/18 07:16:48;;;;;;;13.75;8.23;;;;;;;-1.84;100.00;94832.63;4956253;28;20150;-63
2023/01/18 07:19:15;;;;;;;11.35;6.20;;;;;;;-1.97;100.00;94833.69;4960875;28;20061;-63
2023/01/18 07:21:42;;;;;;;12.43;6.88;;;;;;;-1.93;100.00;94831.38;4954063;28;20039;-63
2023/01/18 07:24:08;;;;;;;12.45;7.05;;;;;;;-1.98;100.00;94845.34;4959633;28;20047;-63
2023/01/18 07:26:35;;;;;;;12.13;7.20;;;;;;;-2.04;100.00;94849.75;4957077;28;20047;-63
2023/01/18 07:29:02;;;;;;;12.40;7.50;;;;;;;-2.02;100.00;94858.28;4962011;28;20137;-63
2023/01/18 07:31:29;;;;;;;12.07;8.80;;;;;;;-2.07;100.00;94862.66;4959056;28;20081;-63
2023/01/18 07:33:55;;;;;;;11.13;7.35;;;;;;;-1.93;100.00;94871.16;4957263;28;20054;-63
2023/01/18 07:36:22;;;;;;;11.65;8.05;;;;;;;-2.17;100.00;94879.97;4956023;28;20050;-63
2023/01/18 07:38:48;;;;;;;11.82;7.97;;;;;;;-2.10;100.00;94879.84;4955393;28;20041;-63
2023/01/18 07:41:16;;;;;;;11.57;8.02;;;;;;;-2.24;100.00;94884.59;4957555;28;20143;-63
2023/01/18 07:43:43;;;;;;;13.52;8.02;;;;;;;-2.23;100.00;94891.50;4952471;28;20039;-62
2023/01/18 07:46:14;;;;;;;13.82;7.97;;;;;;;-2.18;100.00;94904.06;4953106;28;20514;-62
2023/01/18 07:48:41;;;;;;;12.40;7.32;;;;;;;-2.16;100.00;94900.16;4954406;28;20047;-63
2023/01/18 07:51:09;;;;;;;13.85;8.77;;;;;;;-2.26;100.00;94899.91;4957505;28;20053;-62
2023/01/18 07:53:37;;;;;;;12.77;7.15;;;;;;;-2.13;100.00;94901.53;4952424;28;20051;-60
2023/01/18 07:56:11;;;;;;;12.10;7.28;;;;;;;-2.10;100.00;94906.38;4951690;28;20039;-62
2023/01/18 07:58:38;;;;;;;12.52;7.10;;;;;;;-2.00;100.00;94917.19;4954698;28;20406;-61
2023/01/18 08:01:08;;;;;;;13.38;7.78;;;;;;;-1.97;100.00;94922.03;4955271;28;20130;-63
2023/01/18 08:03:35;;;;;;;14.43;7.30;;;;;;;-2.03;100.00;94922.16;4950411;28;20051;-63
2023/01/18 08:06:05;;;;;;;11.70;6.50;;;;;;;-2.09;100.00;94918.59;4963766;28;20407;-60
2023/01/18 08:08:32;;;;;;;10.80;6.20;;;;;;;-2.07;100.00;94927.09;4956415;28;20074;-63
2023/01/18 08:11:00;;;;;;;12.55;6.47;;;;;;;-2.00;100.00;94927.78;4957633;28;20051;-61
2023/01/18 08:13:27;;;;;;;10.38;5.82;;;;;;;-1.99;100.00;94932.06;4955554;28;20046;-63
2023/01/18 08:15:54;;;;;;;11.88;5.95;;;;;;;-1.87;100.00;94932.06;4954647;28;20066;-64
2023/01/18 08:18:22;;;;;;;11.38;6.28;;;;;;;-1.98;100.00;94941.63;4961832;28;20050;-63
2023/01/18 08:20:49;;;;;;;12.70;7.35;;;;;;;-2.07;100.00;94945.66;4956234;28;20521;-63
2023/01/18 08:23:16;;;;;;;13.68;8.50;;;;;;;-1.93;100.00;94948.06;4949538;28;20130;-63
2023/01/18 08:25:43;;;;;;;10.95;6.55;;;;;;;-1.80;100.00;94950.50;4955462;28;20140;-61
2023/01/18 08:28:10;;;;;;;11.45;6.63;;;;;;;-1.74;100.00;94954.84;4954087;28;20039;-62
2023/01/18 08:30:40;;;;;;;9.75;5.80;;;;;;;-1.68;100.00;94961.06;4959381;28;20113;-61
2023/01/18 08:33:07;;;;;;;11.02;6.93;;;;;;;-1.94;100.00;94963.19;4951938;28;20500;-63
2023/01/18 08:35:42;;;;;;;11.23;6.68;;;;;;;-1.80;100.00;94970.91;4959195;28;20137;-63
2023/01/18 08:38:10;;;;;;;10.15;6.07;;;;;;;-1.88;100.00;94974.72;4962022;28;20473;-63
2023/01/18 08:40:37;;;;;;;9.02;5.43;;;;;;;-1.81;100.00;94985.22;4950745;28;20050;-63
2023/01/18 08:43:04;;;;;;;9.23;5.25;;;;;;;-1.72;100.00;94997.91;4958108;28;20057;-62
2023/01/18 08:45:33;;;;;;;9.50;5.38;;;;;;;-1.60;100.00;94997.88;4952543;28;20138;-63
2023/01/18 08:48:03;;;;;;;8.88;5.38;;;;;;;-1.64;100.00;95012.66;4954180;28;20058;-62
2023/01/18 08:50:31;;;;;;;7.40;4.53;;;;;;;-1.70;100.00;95024.16;4951966;28;20594;-63
2023/01/18 08:52:58;;;;;;;9.23;5.65;;;;;;;-1.62;100.00;95023.03;4949769;28;20494;-62
2023/01/18 08:55:28;;;;;;;9.52;5.82;;;;;;;-1.62;100.00;95033.66;4957692;28;20444;-63
2023/01/18 08:57:57;;;;;;;10.38;6.32;;;;;;;-1.68;100.00;95029.25;4960176;28;20055;-62
2023/01/18 09:00:28;;;;;;;9.45;5.68;;;;;;;-1.68;100.00;95029.25;4958105;28;20354;-63
2023/01/18 09:02:56;;;;;;;9.32;4.90;;;;;;;-1.59;100.00;95036.63;4961693;28;20047;-61
2023/01/18 09:05:25;;;;;;;10.93;5.95;;;;;;;-1.64;100.00;95035.72;4956085;28;20054;-62
2023/01/18 09:07:53;;;;;;;8.38;5.05;;;;;;;-1.56;100.00;95038.00;4950748;28;20051;-63
2023/01/18 09:10:20;;;;;;;8.68;5.15;;;;;;;-1.54;100.00;95045.75;4954659;28;20059;-63
2023/01/18 09:12:47;;;;;;;9.07;5.45;;;;;;;-1.50;100.00;95053.03;4958073;28;20042;-63
2023/01/18 09:15:14;;;;;;;9.02;5.10;;;;;;;-1.49;100.00;95051.16;4951961;28;20051;-62
2023/01/18 09:17:40;;;;;;;9.25;5.72;;;;;;;-1.37;100.00;95065.22;4962267;28;20705;-62
2023/01/18 09:20:08;;;;;;;9.27;5.88;;;;;;;-1.36;100.00;95072.13;4961149;28;20130;-63
2023/01/18 09:22:35;;;;;;;10.00;5.80;;;;;;;-1.57;100.00;95070.91;4950260;28;20058;-63
2023/01/18 09:25:02;;;;;;;9.90;5.30;;;;;;;-1.61;100.00;95077.72;4954906;28;20138;-63
2023/01/18 09:27:29;;;;;;;8.02;4.65;;;;;;;-1.66;100.00;95083.69;4956918;28;20085;-64
2023/01/18 09:29:55;;;;;;;8.40;5.18;;;;;;;-1.56;100.00;95091.09;4955217;28;20054;-63
2023/01/18 09:32:24;;;;;;;10.10;5.50;;;;;;;-1.56;100.00;95091.09;4958572;28;20046;-64
2023/01/18 09:34:51;;;;;;;9.02;4.78;;;;;;;-1.50;100.00;95107.94;4957728;28;20674;-62
2023/01/18 09:37:18;;;;;;;8.90;4.95;;;;;;;-1.38;100.00;95110.59;4959432;28;20498;-62
2023/01/18 09:39:45;;;;;;;10.63;4.63;;;;;;;-1.56;100.00;95112.31;4960403;28;20058;-63
2023/01/18 09:42:24;;;;;;;6.60;3.70;;;;;;;-1.48;100.00;95124.44;4965370;28;20538;-62
2023/01/18 09:44:59;;;;;;;8.25;4.40;;;;;;;-1.56;100.00;95125.59;4959902;28;20523;-63
2023/01/18 09:47:45;;;;;;;7.88;4.88;;;;;;;-1.55;100.00;95129.06;4958108;28;20047;-61
2023/01/18 09:50:12;;;;;;;9.32;5.28;;;;;;;-1.70;100.00;95139.09;4954236;28;20051;-63
2023/01/18 09:53:23;;;;;;;7.88;4.18;;;;;;;-1.56;100.00;95128.25;4956900;28;20046;-59
2023/01/18 09:55:58;;;;;;;10.27;5.30;;;;;;;-1.24;100.00;95137.72;4949485;28;20513;-61
2023/01/18 09:58:56;;;;;;;8.55;5.40;;;;;;;-1.20;100.00;95142.34;4956623;28;20690;-63
2023/01/18 10:01:26;;;;;;;9.45;5.78;;;;;;;-1.13;100.00;95144.88;4951174;28;20128;-61
2023/01/18 10:04:06;;;;;;;10.98;6.10;;;;;;;-1.38;100.00;95140.59;4951871;28;20446;-63
2023/01/18 10:06:46;;;;;;;12.60;5.80;;;;;;;-1.50;100.00;95145.09;4947854;28;20053;-60
2023/01/18 10:09:23;;;;;;;10.20;5.45;;;;;;;-1.49;100.00;95144.06;4964294;28;20058;-63
2023/01/18 10:11:58;;;;;;;11.20;5.72;;;;;;;-1.54;100.00;95151.91;4963274;28;20129;-62
2023/01/18 10:14:51;;;;;;;8.68;5.15;;;;;;;-1.46;100.00;95156.88;4959718;28;20058;-62
2023/01/18 10:17:27;;;;;;;10.50;5.68;;;;;;;-1.31;100.00;95162.53;4951801;28;20047;-62
2023/01/18 10:19:54;;;;;;;9.48;5.22;;;;;;;-1.16;100.00;95153.28;4962771;28;20038;-62
2023/01/18 10:22:27;;;;;;;10.30;4.95;;;;;;;-1.09;100.00;95158.47;4955448;28;20051;-62
2023/01/18 10:25:05;;;;;;;9.50;5.05;;;;;;;-1.11;100.00;95160.56;4957963;28;20058;-63
2023/01/18 10:27:56;;;;;;;8.15;4.93;;;;;;;-1.07;100.00;95169.69;4959206;28;20074;-63
2023/01/18 10:30:44;;;;;;;11.38;5.63;;;;;;;-1.18;100.00;95176.63;4958329;28;20622;-62
2023/01/18 10:33:27;;;;;;;8.48;4.57;;;;;;;-1.09;100.00;95177.88;4964777;28;20046;-63
2023/01/18 10:36:08;;;;;;;11.82;5.60;;;;;;;-1.05;100.00;95184.34;4959340;28;20058;-63
2023/01/18 10:38:39;;;;;;;9.05;5.38;;;;;;;-1.02;100.00;95183.06;4951787;28;20043;-64
2023/01/18 10:41:16;;;;;;;9.95;5.25;;;;;;;-0.93;100.00;95187.00;4959203;28;20079;-62
2023/01/18 10:43:43;;;;;;;9.88;5.03;;;;;;;-0.94;100.00;95182.72;4967859;28;20133;-62
2023/01/18 10:46:15;;;;;;;8.35;4.28;;;;;;;-1.10;100.00;95184.22;4956191;28;20458;-63
2023/01/18 10:48:45;;;;;;;14.80;5.43;;;;;;;-1.06;100.00;95185.38;4953944;28;20089;-63
2023/01/18 10:51:24;;;;;;;7.20;5.00;;;;;;;-0.95;100.00;95186.41;4954192;28;20072;-63
2023/01/18 10:53:51;;;;;;;12.13;5.15;;;;;;;-0.93;100.00;95188.81;4958516;28;20073;-63
2023/01/18 10:56:23;;;;;;;8.77;4.57;;;;;;;-0.88;100.00;95188.97;4955939;28;20070;-63
2023/01/18 10:58:49;;;;;;;7.65;3.72;;;;;;;-0.97;100.00;95183.19;4960114;28;20070;-62
2023/01/18 11:01:28;;;;;;;9.15;5.28;;;;;;;-0.69;100.00;95191.47;4959815;28;20061;-62
2023/01/18 11:04:04;;;;;;;11.60;5.82;;;;;;;-0.76;100.00;95188.13;4958921;28;20502;-62
2023/01/18 11:06:52;;;;;;;8.25;4.38;;;;;;;-0.85;100.00;95193.78;4957648;28;20102;-63
2023/01/18 11:09:54;;;;;;;11.05;4.32;;;;;;;-0.73;100.00;95200.94;4950886;28;20530;-63
2023/01/18 11:12:33;;;;;;;8.25;4.38;;;;;;;-0.86;100.00;95208.13;4958660;28;20055;-62
2023/01/18 11:15:12;;;;;;;9.32;4.38;;;;;;;-0.98;100.00;95209.97;4954882;28;20371;-62
2023/01/18 11:17:57;;;;;;;8.93;4.53;;;;;;;-0.91;100.00;95208.00;4962618;28;20046;-62
2023/01/18 11:20:45;;;;;;;10.10;4.80;;;;;;;-0.93;100.00;95207.44;4954860;28;20062;-62
2023/01/18 11:23:24;;;;;;;9.75;5.38;;;;;;;-0.85;100.00;95209.72;4963425;28;20465;-63
2023/01/18 11:26:00;;;;;;;9.50;4.50;;;;;;;-0.72;100.00;95224.63;4954019;28;20075;-63
2023/01/18 11:29:00;;;;;;;8.77;4.60;;;;;;;-0.63;100.00;95222.41;4955913;28;20058;-63
2023/01/18 11:31:44;;;;;;;6.78;3.85;;;;;;;-0.59;100.00;95228.09;4936466;28;20074;-62
2023/01/18 11:34:42;;;;;;;6.10;3.58;;;;;;;-0.71;100.00;95231.56;4961142;28;20058;-63
2023/01/18 11:37:28;;;;;;;6.63;3.97;;;;;;;-0.57;100.00;95240.09;4953552;28;20062;-63
2023/01/18 11:39:55;;;;;;;7.15;4.22;;;;;;;-0.49;100.00;95240.75;4957157;28;20047;-63
2023/01/18 11:42:29;;;;;;;7.10;3.90;;;;;;;-0.74;100.00;95239.19;4949910;28;20473;-63
2023/01/18 11:45:19;;;;;;;6.93;4.38;;;;;;;-0.77;100.00;95240.47;4951745;28;20043;-63
2023/01/18 11:48:12;;;;;;;10.65;3.92;;;;;;;-0.75;99.31;95241.03;4956698;28;20034;-66
2023/01/18 11:50:44;;;;;;;9.38;4.40;;;;;;;-0.70;99.32;95250.97;4953966;28;20058;-63
2023/01/18 11:53:22;;;;;;;8.25;3.72;;;;;;;-0.74;100.00;95250.63;4948687;28;20098;-63
2023/01/18 11:56:04;;;;;;;11.38;5.22;;;;;;;-0.80;100.00;95251.56;4953930;28;20138;-63
2023/01/18 11:58:34;;;;;;;12.00;4.80;;;;;;;-0.77;100.00;95251.09;4951855;28;20054;-63
2023/01/18 12:01:06;;;;;;;10.25;4.53;;;;;;;-0.69;99.83;95255.25;4954299;28;20134;-63
2023/01/18 12:03:46;;;;;;;10.25;4.55;;;;;;;-0.66;100.00;95252.13;4954069;28;20043;-63
2023/01/18 12:06:53;;;;;;;8.25;4.30;;;;;;;-0.59;99.17;95265.31;4948580;28;20130;-63
2023/01/18 12:09:32;;;;;;;9.60;4.88;;;;;;;-0.64;100.00;95265.97;4954681;28;20495;-63
2023/01/18 12:12:14;;;;;;;8.75;4.38;;;;;;;-0.58;100.00;95273.03;4951651;28;20074;-63